Airfield :
LOGIN :

Register | Disclaimer

   EN    FR    IT 

 










Legend :    VFR   Marginal VFR   IFR   Intensive IFR   Very Intensive IFR
Visi :
Ceiling :
>= 8 km
>= 3000ft
5 to 8 km
1000 to 3000 ft
1500m to 5 km
500 to 1000 ft
800 to 1500m
200 to 500 ft
< 800m
< 200 ft
Symbols :   Thunderstorms  Fog  Heavy snow  Heavy precipitations  Wind > 20 kt
SIGMETs :     Misc.  Thunderstorms  Icing  Turbulence  Mountain Waves  Volcanic Ashes







- Airport Elevation : 126 ft
- IATA code : WIC
- Download approach charts


EGPC - Wick

CURRENT METAR :
  • 261820Z AUTO 07018KT 7000 -RA BKN005/// OVC030/// 07/06 Q1002

EXPIRED METARs :
  • 261750Z AUTO 08020KT 7000 -RA OVC004/// 06/06 Q1002 REDZ
  • 261720Z AUTO 08021KT 3300 DZ OVC003/// 07/06 Q1002 RERA
  • 261650Z AUTO 08019KT 2200 RA OVC003/// 07/06 Q1002 REDZ
  • 261620Z AUTO 09019KT 2300 RA OVC002/// 07/07 Q1002
  • 261550Z 09017KT 1700 RADZ BKN002 07/07 Q1002

TAF TAF EGPC
Valid from the 26 at 18:00 until the 27 at 03:00 UTC


261658Z 2618/2703 08015KT 9999 SCT006 BKN012
TEMPO 2618/2703 6000 -RADZ BKN008
PROB40
TEMPO 2618/2624 2000 RADZ BKN004
BECMG 2700/2703 36012KT
ATIS : +44 1955 607 596
No reported NOTAMs for that airfield.
2 SIGMETs reported for the Scottish FIR (EGPX) :
 
Severe mountain waves
EGPX SIGMET 02 VALID 261900/262300 EGRR
EGPX SCOTTISH FIR SEV MTW FCST SE OF LINE N5523 W00711 - N5832 E00227 FL030/150 STNR NC=
Severe mountain waves
EGPX SIGMET 01 VALID 261540/261900 EGRR
EGPX SCOTTISH FIR SEV MTW FCST SE OF LINE N5523 W00711 - N5832 E00227 FL030/150 STNR NC=



MET'MAP, your aeronautical weather chart ! - Copyright ORBIFLY December 2007 - Disclaimer

ORBIFLY MET'MAP TEAM :

Programming & Development : Alexandra Zaïnal
Concept & Development : Baudouin d'Aumeries
Co-Development & Prog : Marc-Olivier Méhu
Technical & hardware support : Manuel Goepfert

Contact : metmap@orbifly.com




SOURCES & CREDITS :

   NOAA